Time;durP1;ratioP1;P1;durP2;ratioP2;P2;SDS_P1;SDS_P2;PMS_P1;PMS_P2;Temp;Humidity;BMP_temperature;BMP_pressure;BME280_temperature;BME280_humidity;BME280_pressure;Samples;Min_cycle;Max_cycle;Signal;HPM_P1;HPM_P2
2021/07/14 00:00:11;;;;;;;;;;;14.10;1.00;;;;;;5051403;28;20097;-61
2021/07/14 00:02:37;;;;;;;;;;;14.10;1.00;;;;;;5051429;28;19908;-61
2021/07/14 00:05:09;;;;;;;;;;;14.10;1.00;;;;;;5049085;28;20492;-61
2021/07/14 00:07:35;;;;;;;;;;;14.10;1.00;;;;;;5044995;28;20397;-61
2021/07/14 00:10:01;;;;;;;;;;;14.10;1.00;;;;;;5050483;28;20123;-61
2021/07/14 00:12:30;;;;;;;;;;;14.10;1.00;;;;;;5051030;28;19909;-61
2021/07/14 00:17:01;;;;;;;;;;;14.00;1.00;;;;;;5051047;28;19923;-61
2021/07/14 00:23:17;;;;;;;;;;;14.10;1.00;;;;;;5050628;28;19924;-60
2021/07/14 00:25:42;;;;;;;;;;;14.10;1.00;;;;;;5050576;28;19909;-60
2021/07/14 00:28:08;;;;;;;;;;;14.00;1.00;;;;;;5049765;28;19920;-61
2021/07/14 00:30:36;;;;;;;;;;;13.80;1.00;;;;;;5050962;28;19908;-60
2021/07/14 00:33:02;;;;;;;;;;;13.70;1.00;;;;;;5050586;28;20239;-60
2021/07/14 00:35:28;;;;;;;;;;;13.60;1.00;;;;;;5050849;28;19932;-60
2021/07/14 00:37:53;;;;;;;;;;;13.50;1.00;;;;;;5049360;28;19908;-60
2021/07/14 00:40:19;;;;;;;;;;;13.50;1.00;;;;;;5050519;28;19909;-60
2021/07/14 00:42:46;;;;;;;;;;;13.40;1.00;;;;;;5050093;28;19917;-60
2021/07/14 00:45:11;;;;;;;;;;;13.40;1.00;;;;;;5050673;28;19998;-61
2021/07/14 00:47:37;;;;;;;;;;;13.50;1.00;;;;;;5049945;28;19944;-60
2021/07/14 00:50:04;;;;;;;;;;;13.50;1.00;;;;;;5049927;28;19913;-61
2021/07/14 00:52:30;;;;;;;;;;;13.50;1.00;;;;;;5049714;28;20301;-60
2021/07/14 00:54:57;;;;;;;;;;;13.40;1.00;;;;;;5050136;28;19927;-59
2021/07/14 00:57:25;;;;;;;;;;;13.40;1.00;;;;;;5049659;28;20262;-61
2021/07/14 00:59:51;;;;;;;;;;;13.40;1.00;;;;;;5050715;28;20054;-60
2021/07/14 01:02:17;;;;;;;;;;;13.40;1.00;;;;;;5047721;28;19940;-61
2021/07/14 01:04:45;;;;;;;;;;;13.40;1.00;;;;;;5049014;28;20026;-61
2021/07/14 01:07:16;;;;;;;;;;;13.40;1.00;;;;;;5049685;28;19967;-61
2021/07/14 01:09:42;;;;;;;;;;;13.30;1.00;;;;;;5048600;28;19912;-61
2021/07/14 01:12:23;;;;;;;;;;;13.30;1.00;;;;;;5049390;28;19919;-60
2021/07/14 01:14:55;;;;;;;;;;;13.40;1.00;;;;;;5049856;28;20423;-61
2021/07/14 01:17:22;;;;;;;;;;;13.30;1.00;;;;;;5049243;28;20273;-61
2021/07/14 01:19:50;;;;;;;;;;;13.40;1.00;;;;;;5049259;28;19909;-61
2021/07/14 01:22:42;;;;;;;;;;;13.30;1.00;;;;;;5049666;28;19913;-63
2021/07/14 01:25:18;;;;;;;;;;;13.40;1.00;;;;;;5044939;28;19912;-63
2021/07/14 01:27:44;;;;;;;;;;;13.40;1.00;;;;;;5047934;28;20824;-63
2021/07/14 01:30:11;;;;;;;;;;;13.50;1.00;;;;;;5049232;28;20408;-63
2021/07/14 01:32:38;;;;;;;;;;;13.40;1.00;;;;;;5048903;28;20010;-63
2021/07/14 01:35:09;;;;;;;;;;;13.40;1.00;;;;;;5048775;28;20027;-63
2021/07/14 01:37:35;;;;;;;;;;;13.40;1.00;;;;;;5048112;28;20475;-63
2021/07/14 01:40:03;;;;;;;;;;;13.40;1.00;;;;;;5049067;28;19919;-63
2021/07/14 01:42:29;;;;;;;;;;;13.40;1.00;;;;;;5040897;28;19927;-63
2021/07/14 01:44:56;;;;;;;;;;;13.40;1.00;;;;;;5048689;28;19916;-62
2021/07/14 01:47:23;;;;;;;;;;;13.40;1.00;;;;;;5047741;28;19909;-62
2021/07/14 01:49:49;;;;;;;;;;;13.40;1.00;;;;;;5048945;28;19917;-63
2021/07/14 01:52:16;;;;;;;;;;;13.40;1.00;;;;;;5049061;28;19967;-63
2021/07/14 01:54:42;;;;;;;;;;;13.40;1.00;;;;;;5048014;28;19960;-63
2021/07/14 01:57:08;;;;;;;;;;;13.30;1.00;;;;;;5048708;28;19993;-64
2021/07/14 01:59:36;;;;;;;;;;;13.30;1.00;;;;;;5048451;28;19962;-63
2021/07/14 02:02:03;;;;;;;;;;;13.30;1.00;;;;;;5048909;28;19969;-64
2021/07/14 02:04:30;;;;;;;;;;;13.30;1.00;;;;;;5049257;28;19909;-64
2021/07/14 02:07:06;;;;;;;;;;;13.30;1.00;;;;;;5048684;28;19912;-62
2021/07/14 02:09:35;;;;;;;;;;;13.20;1.00;;;;;;5047633;28;19923;-61
2021/07/14 02:12:01;;;;;;;;;;;13.20;1.00;;;;;;5048372;28;20326;-62
2021/07/14 02:14:29;;;;;;;;;;;13.20;1.00;;;;;;5049009;28;19913;-62
2021/07/14 02:16:55;;;;;;;;;;;13.20;1.00;;;;;;5048299;28;19956;-62
2021/07/14 02:19:22;;;;;;;;;;;13.10;1.00;;;;;;5047151;28;19909;-63
2021/07/14 02:21:47;;;;;;;;;;;13.10;1.00;;;;;;5048243;28;19908;-63
2021/07/14 02:24:14;;;;;;;;;;;13.10;1.00;;;;;;5047663;28;19916;-63
2021/07/14 02:26:41;;;;;;;;;;;13.10;1.00;;;;;;5047966;28;19944;-63
2021/07/14 02:29:07;;;;;;;;;;;13.20;1.00;;;;;;5047415;28;19923;-63
2021/07/14 02:31:33;;;;;;;;;;;13.20;1.00;;;;;;5048457;28;19909;-63
2021/07/14 02:33:59;;;;;;;;;;;13.20;1.00;;;;;;5047902;28;19919;-63
2021/07/14 02:36:26;;;;;;;;;;;13.30;1.00;;;;;;5048283;28;19955;-63
2021/07/14 02:38:53;;;;;;;;;;;13.30;1.00;;;;;;5047444;28;19966;-63
2021/07/14 02:41:26;;;;;;;;;;;13.30;1.00;;;;;;5048025;28;19957;-62
2021/07/14 02:43:57;;;;;;;;;;;13.40;1.00;;;;;;5047863;28;19916;-63
2021/07/14 02:46:30;;;;;;;;;;;13.40;1.00;;;;;;5068315;28;20396;-63
2021/07/14 02:49:00;;;;;;;;;;;13.40;1.00;;;;;;5066679;28;20409;-63
2021/07/14 02:51:28;;;;;;;;;;;13.40;1.00;;;;;;5068426;28;19915;-63
2021/07/14 02:53:55;;;;;;;;;;;13.50;1.00;;;;;;5067711;28;19909;-63
2021/07/14 02:56:22;;;;;;;;;;;13.50;1.00;;;;;;5067498;28;19908;-63
2021/07/14 02:58:52;;;;;;;;;;;13.50;1.00;;;;;;5067395;28;19916;-62
2021/07/14 03:01:19;;;;;;;;;;;13.60;1.00;;;;;;5050070;28;20395;-63
2021/07/14 03:03:47;;;;;;;;;;;13.60;1.00;;;;;;5043555;28;20074;-63
2021/07/14 03:06:13;;;;;;;;;;;13.60;1.00;;;;;;5039572;28;20361;-63
2021/07/14 03:08:42;;;;;;;;;;;13.60;1.00;;;;;;5047186;28;19983;-63
2021/07/14 03:11:08;;;;;;;;;;;13.60;1.00;;;;;;5047348;28;19909;-63
2021/07/14 03:13:36;;;;;;;;;;;13.60;1.00;;;;;;5048575;28;19916;-62
2021/07/14 03:16:02;;;;;;;;;;;13.60;1.00;;;;;;5047628;28;19908;-63
2021/07/14 03:18:28;;;;;;;;;;;13.60;1.00;;;;;;5046709;28;20007;-63
2021/07/14 03:20:55;;;;;;;;;;;13.50;1.00;;;;;;5047839;28;20218;-63
2021/07/14 03:23:21;;;;;;;;;;;13.50;1.00;;;;;;5047271;28;20401;-63
2021/07/14 03:25:49;;;;;;;;;;;13.50;1.00;;;;;;5047591;28;19920;-63
2021/07/14 03:28:15;;;;;;;;;;;13.50;1.00;;;;;;5046778;28;19916;-63
2021/07/14 03:30:41;;;;;;;;;;;13.50;1.00;;;;;;5048729;28;19954;-63
2021/07/14 03:33:07;;;;;;;;;;;13.50;1.00;;;;;;5050804;28;19913;-63
2021/07/14 03:35:32;;;;;;;;;;;13.50;1.00;;;;;;5051668;28;20119;-63
2021/07/14 03:38:02;;;;;;;;;;;13.50;1.00;;;;;;5050563;28;20285;-63
2021/07/14 03:40:28;;;;;;;;;;;13.50;1.00;;;;;;5051286;28;19909;-62
2021/07/14 03:42:55;;;;;;;;;;;13.50;1.00;;;;;;5048949;28;19920;-61
2021/07/14 03:45:20;;;;;;;;;;;13.50;1.00;;;;;;5051357;28;19943;-62
2021/07/14 03:47:46;;;;;;;;;;;13.50;1.00;;;;;;5050297;28;19952;-63
2021/07/14 03:50:12;;;;;;;;;;;13.50;1.00;;;;;;5050600;28;19929;-62
2021/07/14 03:52:38;;;;;;;;;;;13.50;1.00;;;;;;5050669;28;20004;-63
2021/07/14 03:55:04;;;;;;;;;;;13.50;1.00;;;;;;5050468;28;20003;-63
2021/07/14 03:57:30;;;;;;;;;;;13.50;1.00;;;;;;5050005;28;19917;-63
2021/07/14 03:59:56;;;;;;;;;;;13.50;1.00;;;;;;5050981;28;20285;-63
2021/07/14 04:02:22;;;;;;;;;;;13.50;1.00;;;;;;5050971;28;19917;-62
2021/07/14 04:04:48;;;;;;;;;;;13.50;1.00;;;;;;5050239;28;20272;-63
2021/07/14 04:07:15;;;;;;;;;;;13.50;1.00;;;;;;5050833;28;19920;-62
2021/07/14 04:09:45;;;;;;;;;;;13.60;1.00;;;;;;5050251;28;20218;-62
2021/07/14 04:12:11;;;;;;;;;;;13.60;1.00;;;;;;5050597;28;19913;-61
2021/07/14 04:14:37;;;;;;;;;;;13.60;1.00;;;;;;5050557;28;19916;-61
2021/07/14 04:17:02;;;;;;;;;;;13.70;1.00;;;;;;5050460;28;19913;-61
2021/07/14 04:19:28;;;;;;;;;;;13.70;1.00;;;;;;5049363;28;19956;-60
2021/07/14 04:21:53;;;;;;;;;;;13.80;1.00;;;;;;5050579;28;19915;-61
2021/07/14 04:24:19;;;;;;;;;;;13.80;1.00;;;;;;5049783;28;19909;-61
2021/07/14 04:26:45;;;;;;;;;;;13.80;1.00;;;;;;5049960;28;19916;-61
2021/07/14 04:29:11;;;;;;;;;;;13.90;1.00;;;;;;5047810;28;19966;-61
2021/07/14 04:31:37;;;;;;;;;;;13.90;1.00;;;;;;5050780;28;19923;-61
2021/07/14 04:34:02;;;;;;;;;;;14.00;1.00;;;;;;5050159;28;19909;-61
2021/07/14 04:36:28;;;;;;;;;;;14.00;1.00;;;;;;5050372;28;20352;-61
2021/07/14 04:38:54;;;;;;;;;;;14.00;1.00;;;;;;5048848;28;20365;-61
2021/07/14 04:41:20;;;;;;;;;;;14.10;1.00;;;;;;5045298;28;19921;-62
2021/07/14 04:43:45;;;;;;;;;;;14.10;1.00;;;;;;5045216;28;20522;-61
2021/07/14 04:46:11;;;;;;;;;;;14.20;1.00;;;;;;5050437;28;19920;-62
2021/07/14 04:48:37;;;;;;;;;;;14.20;1.00;;;;;;5048486;28;19913;-61
2021/07/14 04:51:02;;;;;;;;;;;14.20;1.00;;;;;;5049604;28;19951;-61
2021/07/14 04:53:28;;;;;;;;;;;14.30;1.00;;;;;;5049100;28;20079;-61
2021/07/14 04:55:53;;;;;;;;;;;14.30;1.00;;;;;;5049243;28;19916;-62
2021/07/14 04:58:19;;;;;;;;;;;14.30;1.00;;;;;;5048629;28;20258;-62
2021/07/14 05:00:44;;;;;;;;;;;14.40;1.00;;;;;;5049631;28;20014;-62
2021/07/14 05:03:10;;;;;;;;;;;14.50;1.00;;;;;;5048949;28;19912;-60
2021/07/14 05:05:36;;;;;;;;;;;14.60;1.00;;;;;;5050172;28;19998;-61
2021/07/14 05:08:01;;;;;;;;;;;14.60;1.00;;;;;;5048812;28;19943;-60
2021/07/14 05:10:31;;;;;;;;;;;14.70;1.00;;;;;;5049268;28;19995;-62
2021/07/14 05:12:56;;;;;;;;;;;14.70;1.00;;;;;;5049108;28;19962;-62
2021/07/14 05:15:22;;;;;;;;;;;14.70;1.00;;;;;;5049982;28;20008;-61
2021/07/14 05:17:47;;;;;;;;;;;14.80;1.00;;;;;;5048994;28;20038;-62
2021/07/14 05:20:13;;;;;;;;;;;14.80;1.00;;;;;;5049274;28;20639;-61
2021/07/14 05:22:38;;;;;;;;;;;14.90;1.00;;;;;;5049077;28;19909;-62
2021/07/14 05:25:05;;;;;;;;;;;14.90;1.00;;;;;;5048485;28;19916;-62
2021/07/14 05:27:30;;;;;;;;;;;14.90;1.00;;;;;;5047928;28;19913;-62
2021/07/14 05:29:56;;;;;;;;;;;14.90;1.00;;;;;;5049333;28;20031;-63
2021/07/14 05:32:21;;;;;;;;;;;14.90;1.00;;;;;;5049427;28;19935;-62
2021/07/14 05:34:47;;;;;;;;;;;14.90;1.00;;;;;;5048956;28;19909;-62
2021/07/14 05:37:12;;;;;;;;;;;14.80;1.00;;;;;;5048897;28;19908;-63
2021/07/14 05:39:37;;;;;;;;;;;14.80;1.00;;;;;;5047848;28;19909;-62
2021/07/14 05:42:03;;;;;;;;;;;14.80;1.00;;;;;;5049112;28;19920;-63
2021/07/14 05:44:29;;;;;;;;;;;14.90;1.00;;;;;;5045624;28;20380;-62
2021/07/14 05:46:55;;;;;;;;;;;15.00;1.00;;;;;;5049010;28;19916;-61
2021/07/14 05:49:20;;;;;;;;;;;15.00;1.00;;;;;;5047341;28;19919;-62
2021/07/14 05:51:46;;;;;;;;;;;15.20;1.00;;;;;;5049184;28;20343;-62
2021/07/14 05:54:11;;;;;;;;;;;15.60;1.00;;;;;;5047745;28;19909;-62
2021/07/14 05:56:37;;;;;;;;;;;16.00;1.00;;;;;;5048365;28;20015;-62
2021/07/14 05:59:02;;;;;;;;;;;16.30;1.00;;;;;;5047980;28;20003;-63
2021/07/14 06:01:28;;;;;;;;;;;16.40;99.90;;;;;;5048727;28;19938;-63
2021/07/14 06:03:53;;;;;;;;;;;16.40;99.90;;;;;;5048182;28;19966;-63
2021/07/14 06:06:19;;;;;;;;;;;16.60;99.90;;;;;;5040506;28;19912;-62
2021/07/14 06:08:45;;;;;;;;;;;16.80;99.90;;;;;;5047537;28;19925;-63
2021/07/14 06:11:10;;;;;;;;;;;17.10;1.00;;;;;;5047536;28;19933;-60
2021/07/14 06:13:36;;;;;;;;;;;17.30;99.90;;;;;;5048606;28;19912;-63
2021/07/14 06:16:01;;;;;;;;;;;17.60;1.00;;;;;;5049157;28;19941;-63
2021/07/14 06:18:27;;;;;;;;;;;17.70;99.90;;;;;;5048032;28;20043;-63
2021/07/14 06:20:52;;;;;;;;;;;17.80;99.90;;;;;;5048767;28;20024;-63
2021/07/14 06:23:18;;;;;;;;;;;17.70;99.90;;;;;;5048031;28;20341;-60
2021/07/14 06:25:44;;;;;;;;;;;17.40;99.90;;;;;;5047805;28;19917;-61
2021/07/14 06:28:13;;;;;;;;;;;17.20;1.00;;;;;;5047535;28;19916;-61
2021/07/14 06:30:42;;;;;;;;;;;17.40;72.80;;;;;;5047271;28;20230;-61
2021/07/14 06:33:07;;;;;;;;;;;17.70;10.60;;;;;;5047852;28;19909;-61
2021/07/14 06:35:33;;;;;;;;;;;18.00;1.00;;;;;;5042023;28;19963;-62
2021/07/14 06:37:59;;;;;;;;;;;18.30;1.00;;;;;;5035276;28;20276;-63
2021/07/14 06:40:24;;;;;;;;;;;18.50;1.00;;;;;;5046573;28;19916;-62
2021/07/14 06:42:50;;;;;;;;;;;18.80;87.50;;;;;;5047746;28;20369;-63
2021/07/14 06:45:16;;;;;;;;;;;19.10;1.00;;;;;;5047597;28;20468;-62
2021/07/14 06:47:41;;;;;;;;;;;19.20;1.00;;;;;;5047042;28;19915;-62
2021/07/14 06:50:08;;;;;;;;;;;19.60;99.90;;;;;;5047741;28;19913;-62
2021/07/14 06:52:34;;;;;;;;;;;20.30;99.90;;;;;;5048045;28;20005;-62
2021/07/14 06:54:59;;;;;;;;;;;21.10;1.00;;;;;;5047990;28;19997;-62
2021/07/14 06:57:25;;;;;;;;;;;22.00;1.00;;;;;;5047296;28;19923;-62
2021/07/14 06:59:51;;;;;;;;;;;23.10;1.00;;;;;;5048473;28;19928;-63
2021/07/14 07:02:16;;;;;;;;;;;24.90;1.00;;;;;;5048328;28;19916;-63
2021/07/14 07:04:42;;;;;;;;;;;26.60;99.90;;;;;;5048182;28;20004;-62
2021/07/14 07:07:07;;;;;;;;;;;28.30;99.90;;;;;;5051619;28;19909;-62
2021/07/14 07:09:33;;;;;;;;;;;29.30;99.90;;;;;;5050873;28;20029;-62
2021/07/14 07:11:58;;;;;;;;;;;30.30;99.90;;;;;;5051851;28;19913;-59
2021/07/14 07:14:24;;;;;;;;;;;30.50;99.90;;;;;;5051996;28;19913;-62
2021/07/14 07:16:50;;;;;;;;;;;29.60;99.90;;;;;;5051835;28;20361;-63
2021/07/14 07:19:15;;;;;;;;;;;28.50;99.90;;;;;;5050503;28;19912;-62
2021/07/14 07:21:41;;;;;;;;;;;27.70;99.90;;;;;;5052071;28;19909;-62
2021/07/14 07:24:06;;;;;;;;;;;27.30;99.90;;;;;;5051177;28;19955;-62
2021/07/14 07:26:32;;;;;;;;;;;27.30;99.90;;;;;;5051076;28;19974;-62
2021/07/14 07:29:00;;;;;;;;;;;27.20;99.90;;;;;;5051514;28;20050;-62
2021/07/14 07:31:25;;;;;;;;;;;27.00;99.90;;;;;;5051444;28;19909;-62
2021/07/14 07:33:51;;;;;;;;;;;26.50;99.90;;;;;;5051505;28;19909;-62
2021/07/14 07:36:16;;;;;;;;;;;25.60;99.90;;;;;;5052068;28;19912;-62
2021/07/14 07:38:42;;;;;;;;;;;24.90;99.90;;;;;;5050274;28;20020;-62
2021/07/14 07:41:10;;;;;;;;;;;24.20;99.90;;;;;;5048510;28;19916;-62
2021/07/14 07:43:35;;;;;;;;;;;23.30;99.90;;;;;;5045755;28;19916;-62
2021/07/14 07:46:01;;;;;;;;;;;22.80;99.90;;;;;;5051479;28;19982;-62
2021/07/14 07:48:27;;;;;;;;;;;22.30;99.90;;;;;;5049981;28;19923;-61
2021/07/14 07:50:53;;;;;;;;;;;21.90;99.90;;;;;;5051302;28;19954;-62
2021/07/14 07:53:19;;;;;;;;;;;21.70;99.90;;;;;;5050159;28;19919;-62
2021/07/14 07:55:48;;;;;;;;;;;21.40;99.90;;;;;;5050694;28;19925;-62
2021/07/14 07:58:14;;;;;;;;;;;21.20;99.90;;;;;;5050261;28;20327;-62
2021/07/14 08:00:40;;;;;;;;;;;20.70;99.90;;;;;;5051177;28;19978;-61
2021/07/14 08:03:05;;;;;;;;;;;19.70;99.90;;;;;;5051603;28;19912;-62
2021/07/14 08:05:31;;;;;;;;;;;19.50;99.90;;;;;;5051251;28;20015;-61
2021/07/14 08:07:56;;;;;;;;;;;19.60;99.90;;;;;;5049991;28;19913;-61
2021/07/14 08:10:22;;;;;;;;;;;19.50;99.90;;;;;;5051008;28;20284;-59
2021/07/14 08:12:47;;;;;;;;;;;19.60;99.90;;;;;;5050739;28;19938;-60
2021/07/14 08:15:13;;;;;;;;;;;19.70;99.90;;;;;;5050829;28;20281;-59
2021/07/14 08:17:40;;;;;;;;;;;19.70;99.90;;;;;;5049697;28;19909;-61
2021/07/14 08:20:06;;;;;;;;;;;19.70;99.90;;;;;;5050301;28;19916;-61
2021/07/14 08:22:32;;;;;;;;;;;19.70;99.90;;;;;;5050384;28;19974;-61
2021/07/14 08:24:57;;;;;;;;;;;19.70;99.90;;;;;;5050494;28;19993;-61
2021/07/14 08:27:24;;;;;;;;;;;19.80;99.90;;;;;;5049852;28;19958;-61
2021/07/14 08:29:51;;;;;;;;;;;19.70;99.90;;;;;;5050716;28;20011;-61
2021/07/14 08:32:16;;;;;;;;;;;19.80;99.90;;;;;;5050758;28;19915;-61
2021/07/14 08:34:42;;;;;;;;;;;19.90;99.90;;;;;;5050034;28;19996;-61
2021/07/14 08:37:07;;;;;;;;;;;20.10;99.90;;;;;;5050280;28;19982;-61
2021/07/14 08:39:34;;;;;;;;;;;20.20;99.90;;;;;;5048576;28;19961;-61
2021/07/14 08:42:01;;;;;;;;;;;20.20;99.90;;;;;;5050083;28;20349;-61
2021/07/14 08:44:27;;;;;;;;;;;20.40;99.90;;;;;;5050140;28;20330;-61
2021/07/14 08:46:53;;;;;;;;;;;20.70;99.90;;;;;;5050197;28;19973;-61
2021/07/14 08:49:19;;;;;;;;;;;21.00;99.90;;;;;;5048450;28;19983;-61
2021/07/14 08:51:45;;;;;;;;;;;21.10;99.90;;;;;;5049958;28;19959;-58
2021/07/14 08:54:11;;;;;;;;;;;21.30;99.90;;;;;;5049712;28;19930;-59
2021/07/14 08:56:37;;;;;;;;;;;21.70;99.90;;;;;;5049766;28;19934;-61
2021/07/14 08:59:02;;;;;;;;;;;22.00;99.90;;;;;;5049460;28;20384;-59
2021/07/14 09:01:28;;;;;;;;;;;22.50;99.90;;;;;;5049850;28;20359;-61
2021/07/14 09:03:53;;;;;;;;;;;22.80;99.90;;;;;;5049231;28;19909;-60
2021/07/14 09:06:19;;;;;;;;;;;22.60;99.90;;;;;;5041926;28;19975;-61
2021/07/14 09:08:44;;;;;;;;;;;22.90;99.90;;;;;;5049186;28;20023;-61
2021/07/14 09:11:10;;;;;;;;;;;23.10;99.90;;;;;;5049136;28;20234;-61
2021/07/14 09:13:36;;;;;;;;;;;23.40;99.90;;;;;;5049827;28;19916;-61
2021/07/14 09:16:02;;;;;;;;;;;23.20;99.90;;;;;;5050000;28;19909;-61
2021/07/14 09:18:29;;;;;;;;;;;23.70;99.90;;;;;;5048688;28;19930;-61
2021/07/14 09:20:54;;;;;;;;;;;24.40;99.90;;;;;;5050547;28;19919;-61
2021/07/14 09:23:21;;;;;;;;;;;25.20;99.90;;;;;;5049116;28;19909;-62
2021/07/14 09:25:48;;;;;;;;;;;25.90;99.90;;;;;;5049232;28;20348;-62
2021/07/14 09:28:15;;;;;;;;;;;25.70;99.90;;;;;;5041238;28;20373;-62
2021/07/14 09:30:41;;;;;;;;;;;25.60;99.90;;;;;;5029056;28;19913;-64
2021/07/14 09:33:08;;;;;;;;;;;25.60;99.90;;;;;;5028400;28;19982;-61
2021/07/14 09:35:38;;;;;;;;;;;25.80;99.90;;;;;;5028630;28;20308;-62
2021/07/14 09:38:17;;;;;;;;;;;25.80;99.90;;;;;;5028001;28;19925;-62
2021/07/14 09:40:44;;;;;;;;;;;25.40;99.90;;;;;;5028642;28;19913;-62
2021/07/14 09:43:12;;;;;;;;;;;25.00;99.90;;;;;;5028668;28;19929;-63
2021/07/14 09:45:37;;;;;;;;;;;25.00;99.90;;;;;;5029006;28;19920;-63
2021/07/14 09:48:04;;;;;;;;;;;24.50;99.90;;;;;;5028403;28;19913;-62
2021/07/14 09:50:33;;;;;;;;;;;24.50;99.90;;;;;;5029813;28;20278;-62
2021/07/14 09:52:59;;;;;;;;;;;24.50;99.90;;;;;;5028664;28;19925;-62
2021/07/14 09:55:29;;;;;;;;;;;24.20;99.90;;;;;;5029064;28;20340;-62
2021/07/14 09:58:10;;;;;;;;;;;24.00;99.90;;;;;;5028062;28;19913;-62
2021/07/14 10:00:39;;;;;;;;;;;23.90;99.90;;;;;;5029229;28;20231;-62
2021/07/14 10:03:04;;;;;;;;;;;23.20;99.90;;;;;;5039095;28;20269;-62
2021/07/14 10:05:30;;;;;;;;;;;23.00;99.90;;;;;;5048682;28;19915;-63
2021/07/14 10:08:15;;;;;;;;;;;22.80;99.90;;;;;;5047705;28;19920;-61
2021/07/14 10:10:40;;;;;;;;;;;22.90;99.90;;;;;;5048011;28;19912;-62
2021/07/14 10:13:07;;;;;;;;;;;22.90;99.90;;;;;;5047908;28;20003;-63
2021/07/14 10:15:33;;;;;;;;;;;23.10;99.90;;;;;;5048792;28;19954;-63
2021/07/14 10:17:58;;;;;;;;;;;23.30;99.90;;;;;;5047724;28;19938;-63
2021/07/14 10:20:25;;;;;;;;;;;23.50;99.90;;;;;;5048956;28;19908;-61
2021/07/14 10:22:51;;;;;;;;;;;23.70;99.90;;;;;;5048805;28;20281;-63
2021/07/14 10:25:20;;;;;;;;;;;24.00;99.90;;;;;;5048443;28;20000;-63
2021/07/14 10:27:46;;;;;;;;;;;24.30;99.90;;;;;;5047729;28;19912;-62
2021/07/14 10:30:12;;;;;;;;;;;25.00;99.90;;;;;;5048235;28;19917;-62
2021/07/14 10:32:40;;;;;;;;;;;25.80;99.90;;;;;;5048694;28;19931;-63
2021/07/14 10:35:06;;;;;;;;;;;26.90;99.90;;;;;;5048054;28;20331;-63
2021/07/14 10:37:31;;;;;;;;;;;27.70;99.90;;;;;;5047077;28;19994;-63
2021/07/14 10:39:57;;;;;;;;;;;28.20;99.90;;;;;;5047434;28;20003;-63
2021/07/14 10:42:23;;;;;;;;;;;28.70;99.90;;;;;;5039569;28;19917;-63
2021/07/14 10:44:48;;;;;;;;;;;28.80;99.90;;;;;;5048239;28;19909;-63
2021/07/14 10:47:14;;;;;;;;;;;28.50;99.90;;;;;;5048269;28;19917;-63
2021/07/14 10:49:41;;;;;;;;;;;27.60;99.90;;;;;;5047401;28;20270;-62
2021/07/14 10:52:07;;;;;;;;;;;27.20;99.90;;;;;;5048089;28;20385;-63
2021/07/14 10:54:32;;;;;;;;;;;26.80;99.90;;;;;;5047528;28;20000;-63
2021/07/14 10:57:01;;;;;;;;;;;26.60;99.90;;;;;;5047622;28;19908;-63
2021/07/14 10:59:27;;;;;;;;;;;26.20;99.90;;;;;;5047492;28;19909;-63
2021/07/14 11:01:53;;;;;;;;;;;26.00;99.90;;;;;;5047785;28;19912;-62
2021/07/14 11:04:18;;;;;;;;;;;26.10;99.90;;;;;;5047850;28;19912;-63
2021/07/14 11:06:57;;;;;;;;;;;26.30;99.90;;;;;;5047943;28;20054;-63
2021/07/14 11:09:41;;;;;;;;;;;26.80;99.90;;;;;;5046972;28;20340;-63
2021/07/14 11:12:08;;;;;;;;;;;27.40;99.90;;;;;;5047662;28;20386;-62
2021/07/14 11:14:47;;;;;;;;;;;27.70;99.90;;;;;;5048066;28;19909;-63
2021/07/14 11:17:13;;;;;;;;;;;27.90;99.90;;;;;;5048105;28;19913;-63
2021/07/14 11:19:46;;;;;;;;;;;28.30;99.90;;;;;;5046803;28;20011;-63
2021/07/14 11:22:12;;;;;;;;;;;28.40;99.90;;;;;;5047595;28;19916;-62
2021/07/14 11:24:45;;;;;;;;;;;28.50;99.90;;;;;;5038409;28;19921;-63
2021/07/14 11:27:19;;;;;;;;;;;28.60;99.90;;;;;;5044301;28;19936;-62
2021/07/14 11:29:45;;;;;;;;;;;29.30;99.90;;;;;;5043302;28;20004;-62
2021/07/14 11:32:31;;;;;;;;;;;30.10;99.90;;;;;;5048389;28;19912;-63
2021/07/14 11:35:00;;;;;;;;;;;30.20;99.90;;;;;;5047983;28;20004;-63
2021/07/14 11:37:31;;;;;;;;;;;30.10;99.90;;;;;;5047304;28;20280;-62
2021/07/14 11:40:20;;;;;;;;;;;28.90;99.90;;;;;;5047584;28;19963;-63
2021/07/14 11:42:48;;;;;;;;;;;28.00;99.90;;;;;;5047313;28;20277;-66
2021/07/14 11:45:14;;;;;;;;;;;28.10;99.90;;;;;;5031048;28;19914;-63
2021/07/14 11:47:40;;;;;;;;;;;28.80;99.90;;;;;;5027331;28;19914;-62
2021/07/14 11:50:06;;;;;;;;;;;29.20;99.90;;;;;;5027848;28;19921;-63
2021/07/14 11:52:41;;;;;;;;;;;28.60;99.90;;;;;;5027762;28;20000;-62
2021/07/14 11:55:22;;;;;;;;;;;28.10;99.90;;;;;;5030471;28;19967;-63
2021/07/14 11:57:48;;;;;;;;;;;27.70;99.90;;;;;;5030827;28;19996;-63
2021/07/14 12:00:14;;;;;;;;;;;27.70;99.90;;;;;;5047161;28;20382;-63
2021/07/14 12:02:40;;;;;;;;;;;27.60;99.90;;;;;;5037956;28;19920;-63
2021/07/14 12:05:06;;;;;;;;;;;27.70;99.90;;;;;;5048097;28;19916;-63
2021/07/14 12:07:39;;;;;;;;;;;27.20;99.90;;;;;;5045122;28;19931;-63
2021/07/14 12:10:14;;;;;;;;;;;27.20;99.90;;;;;;5052080;28;20332;-63
2021/07/14 12:12:44;;;;;;;;;;;27.40;99.90;;;;;;5050485;28;19991;-63
2021/07/14 12:15:10;;;;;;;;;;;27.50;99.90;;;;;;5051707;28;20035;-63
2021/07/14 12:17:35;;;;;;;;;;;27.50;99.90;;;;;;5049969;28;20466;-63
2021/07/14 12:20:01;;;;;;;;;;;27.70;99.90;;;;;;5047584;28;19909;-63
2021/07/14 12:22:26;;;;;;;;;;;27.90;99.90;;;;;;5049088;28;19908;-62
2021/07/14 12:24:53;;;;;;;;;;;27.90;99.90;;;;;;5049617;28;19941;-63
2021/07/14 12:27:22;;;;;;;;;;;27.40;99.90;;;;;;5049561;28;20443;-62
2021/07/14 12:29:49;;;;;;;;;;;27.20;99.90;;;;;;5047350;28;19913;-63
2021/07/14 12:32:15;;;;;;;;;;;27.00;99.90;;;;;;5050950;28;19995;-63
2021/07/14 12:34:44;;;;;;;;;;;26.80;99.90;;;;;;5050672;28;20557;-63
2021/07/14 12:37:10;;;;;;;;;;;26.90;99.90;;;;;;5048652;28;19912;-62
2021/07/14 12:39:36;;;;;;;;;;;27.20;99.90;;;;;;5049504;28;19908;-63
2021/07/14 12:42:06;;;;;;;;;;;27.40;99.90;;;;;;5046970;28;20257;-63
2021/07/14 12:44:32;;;;;;;;;;;27.50;99.90;;;;;;5050615;28;19982;-63
2021/07/14 12:47:11;;;;;;;;;;;27.60;99.90;;;;;;5048449;28;19909;-63
2021/07/14 12:49:37;;;;;;;;;;;27.70;99.90;;;;;;5049110;28;19954;-63
2021/07/14 12:52:02;;;;;;;;;;;27.50;99.90;;;;;;5049038;28;20058;-63
2021/07/14 12:54:28;;;;;;;;;;;27.30;99.90;;;;;;5049950;28;19913;-63
2021/07/14 12:56:54;;;;;;;;;;;27.00;99.90;;;;;;5047849;28;20058;-62
2021/07/14 12:59:19;;;;;;;;;;;26.30;99.90;;;;;;5049610;28;20336;-63
2021/07/14 13:01:45;;;;;;;;;;;25.80;99.90;;;;;;5050091;28;19909;-62
2021/07/14 13:04:14;;;;;;;;;;;25.10;99.90;;;;;;5049414;28;20384;-63
2021/07/14 13:06:40;;;;;;;;;;;25.00;99.90;;;;;;5050215;28;19920;-62
2021/07/14 13:09:06;;;;;;;;;;;24.80;99.90;;;;;;5049693;28;20460;-63
2021/07/14 13:11:32;;;;;;;;;;;24.80;99.90;;;;;;5048615;28;19999;-64
2021/07/14 13:13:57;;;;;;;;;;;24.90;99.90;;;;;;5049760;28;20008;-63
2021/07/14 13:16:24;;;;;;;;;;;24.90;99.90;;;;;;5049968;28;19909;-63
2021/07/14 13:18:52;;;;;;;;;;;24.60;99.90;;;;;;5048737;28;19944;-63
2021/07/14 13:21:24;;;;;;;;;;;24.90;99.90;;;;;;5049257;28;19967;-63
2021/07/14 13:24:00;;;;;;;;;;;25.30;99.90;;;;;;5049925;28;19920;-63
2021/07/14 13:26:25;;;;;;;;;;;25.30;99.90;;;;;;5028036;28;19909;-63
2021/07/14 13:28:51;;;;;;;;;;;25.40;99.90;;;;;;5029097;28;19924;-63
2021/07/14 13:31:23;;;;;;;;;;;25.30;99.90;;;;;;5048744;28;20310;-64
2021/07/14 13:33:57;;;;;;;;;;;25.30;99.90;;;;;;5048788;28;19955;-63
2021/07/14 13:36:26;;;;;;;;;;;25.00;99.90;;;;;;5048877;28;19908;-63
2021/07/14 13:38:56;;;;;;;;;;;25.10;99.90;;;;;;5048926;28;20196;-64
2021/07/14 13:41:32;;;;;;;;;;;25.20;99.90;;;;;;5043636;28;19913;-63
2021/07/14 13:43:59;;;;;;;;;;;25.00;99.90;;;;;;5046466;28;20231;-63
2021/07/14 13:46:24;;;;;;;;;;;25.10;99.90;;;;;;5049064;28;20296;-63
2021/07/14 13:48:54;;;;;;;;;;;25.10;99.90;;;;;;5048233;28;20007;-62
2021/07/14 13:51:31;;;;;;;;;;;25.10;99.90;;;;;;5049204;28;20035;-62
2021/07/14 13:53:57;;;;;;;;;;;25.10;99.90;;;;;;5049814;28;19970;-62
2021/07/14 13:56:29;;;;;;;;;;;25.00;99.90;;;;;;5048118;28;19959;-62
2021/07/14 13:58:55;;;;;;;;;;;24.90;99.90;;;;;;5048647;28;19984;-62
2021/07/14 14:01:26;;;;;;;;;;;25.00;99.90;;;;;;5049462;28;19915;-61
2021/07/14 14:03:58;;;;;;;;;;;24.60;99.90;;;;;;5049120;28;19908;-60
2021/07/14 14:06:24;;;;;;;;;;;24.20;99.90;;;;;;5049310;28;20397;-60
2021/07/14 14:08:53;;;;;;;;;;;24.00;99.90;;;;;;5048614;28;19928;-60
2021/07/14 14:11:23;;;;;;;;;;;24.10;99.90;;;;;;5047874;28;19933;-61
2021/07/14 14:13:49;;;;;;;;;;;23.80;99.90;;;;;;5049048;28;19913;-62
2021/07/14 14:16:14;;;;;;;;;;;23.90;99.90;;;;;;5048571;28;19912;-63
2021/07/14 14:18:40;;;;;;;;;;;24.00;99.90;;;;;;5047933;28;19916;-63
2021/07/14 14:21:06;;;;;;;;;;;24.00;99.90;;;;;;5049321;28;19991;-62
2021/07/14 14:23:32;;;;;;;;;;;24.30;99.90;;;;;;5048977;28;20200;-62
2021/07/14 14:26:00;;;;;;;;;;;24.40;99.90;;;;;;5048966;28;19908;-63
2021/07/14 14:28:26;;;;;;;;;;;24.50;99.90;;;;;;5047721;28;19932;-63